CEB4138 RPLL-RPVM
Flight info
| Callsign | CEB4138 |
|---|---|
| Flight time | 0h 56m |
| Altitude | 31000 |
| Route | IPAT2R IPATA |
| Aircraft | A20N/L-SDE2E3FGHIJ1RWXY/C |
Departure
| Time | 2026-05-07 14:28 |
|---|---|
| Airport | Ninoy Aquino International Airport (RPLL) |
Arrival
| Time | 2026-05-07 15:25 |
|---|---|
| Airport | Mactan Cebu International Airport (RPVM) |
| Time | Latitude | Longitude | Altitude | Speed | Heading |
|---|---|---|---|---|---|
| 2026-05-07 13:35 | 14.52299 | 121.00902 | 84 ft | 0 kts | 44° |
| 2026-05-07 14:08 | 14.52298 | 121.00901 | 84 ft | 0 kts | 44° |
| 2026-05-07 14:09 | 14.52285 | 121.00889 | 84 ft | 3 kts | 44° |
| 2026-05-07 14:09 | 14.52266 | 121.00870 | 84 ft | 3 kts | 44° |
| 2026-05-07 14:09 | 14.52247 | 121.00851 | 84 ft | 3 kts | 44° |
| 2026-05-07 14:09 | 14.52231 | 121.00835 | 84 ft | 0 kts | 44° |
| 2026-05-07 14:10 | 14.52232 | 121.00835 | 84 ft | 0 kts | 49° |
| 2026-05-07 14:10 | 14.52232 | 121.00839 | 84 ft | 0 kts | 102° |
| 2026-05-07 14:10 | 14.52224 | 121.00840 | 84 ft | 2 kts | 197° |
| 2026-05-07 14:10 | 14.52196 | 121.00836 | 84 ft | 3 kts | 165° |
| 2026-05-07 14:11 | 14.52195 | 121.00837 | 84 ft | 0 kts | 162° |
| 2026-05-07 14:14 | 14.52187 | 121.00841 | 84 ft | 1 kts | 151° |
| 2026-05-07 14:14 | 14.52170 | 121.00853 | 84 ft | 4 kts | 138° |
| 2026-05-07 14:14 | 14.52139 | 121.00884 | 84 ft | 8 kts | 135° |
| 2026-05-07 14:14 | 14.52084 | 121.00940 | 84 ft | 13 kts | 135° |
| 2026-05-07 14:15 | 14.52009 | 121.01018 | 84 ft | 16 kts | 134° |
| 2026-05-07 14:15 | 14.51926 | 121.01058 | 84 ft | 12 kts | 213° |
| 2026-05-07 14:15 | 14.51854 | 121.01076 | 84 ft | 12 kts | 139° |
| 2026-05-07 14:15 | 14.51791 | 121.01138 | 84 ft | 12 kts | 135° |
| 2026-05-07 14:16 | 14.51726 | 121.01205 | 84 ft | 13 kts | 135° |
| 2026-05-07 14:16 | 14.51657 | 121.01277 | 84 ft | 14 kts | 134° |
| 2026-05-07 14:16 | 14.51584 | 121.01353 | 84 ft | 15 kts | 134° |
| 2026-05-07 14:16 | 14.51509 | 121.01430 | 84 ft | 15 kts | 136° |
| 2026-05-07 14:17 | 14.51431 | 121.01511 | 84 ft | 15 kts | 135° |
| 2026-05-07 14:17 | 14.51352 | 121.01592 | 84 ft | 15 kts | 135° |
| 2026-05-07 14:17 | 14.51273 | 121.01674 | 84 ft | 16 kts | 135° |
| 2026-05-07 14:17 | 14.51209 | 121.01740 | 84 ft | 7 kts | 135° |
| 2026-05-07 14:18 | 14.51187 | 121.01763 | 84 ft | 3 kts | 135° |
| 2026-05-07 14:18 | 14.51165 | 121.01785 | 84 ft | 5 kts | 135° |
| 2026-05-07 14:18 | 14.51136 | 121.01816 | 84 ft | 7 kts | 135° |
| 2026-05-07 14:18 | 14.51106 | 121.01846 | 84 ft | 0 kts | 135° |
| 2026-05-07 14:19 | 14.51104 | 121.01848 | 84 ft | 3 kts | 135° |
| 2026-05-07 14:19 | 14.51048 | 121.01849 | 84 ft | 10 kts | 230° |
| 2026-05-07 14:19 | 14.51022 | 121.01804 | 84 ft | 11 kts | 241° |
| 2026-05-07 14:19 | 14.51004 | 121.01769 | 84 ft | 0 kts | 240° |
| 2026-05-07 14:20 | 14.50998 | 121.01759 | 84 ft | 3 kts | 240° |
| 2026-05-07 14:20 | 14.50967 | 121.01736 | 84 ft | 7 kts | 189° |
| 2026-05-07 14:20 | 14.50904 | 121.01730 | 84 ft | 10 kts | 211° |
| 2026-05-07 14:20 | 14.50859 | 121.01664 | 84 ft | 11 kts | 242° |
| 2026-05-07 14:21 | 14.50819 | 121.01585 | 84 ft | 12 kts | 240° |
| 2026-05-07 14:21 | 14.50773 | 121.01505 | 84 ft | 13 kts | 240° |
| 2026-05-07 14:21 | 14.50724 | 121.01417 | 84 ft | 14 kts | 240° |
| 2026-05-07 14:21 | 14.50674 | 121.01327 | 84 ft | 14 kts | 240° |
| 2026-05-07 14:22 | 14.50622 | 121.01232 | 84 ft | 15 kts | 240° |
| 2026-05-07 14:22 | 14.50567 | 121.01135 | 84 ft | 15 kts | 240° |
| 2026-05-07 14:22 | 14.50511 | 121.01032 | 84 ft | 16 kts | 240° |
| 2026-05-07 14:22 | 14.50454 | 121.00930 | 84 ft | 16 kts | 240° |
| 2026-05-07 14:23 | 14.50395 | 121.00825 | 84 ft | 17 kts | 240° |
| 2026-05-07 14:23 | 14.50336 | 121.00719 | 84 ft | 17 kts | 240° |
| 2026-05-07 14:23 | 14.50276 | 121.00610 | 84 ft | 17 kts | 240° |
| 2026-05-07 14:23 | 14.50215 | 121.00500 | 84 ft | 17 kts | 240° |
| 2026-05-07 14:24 | 14.50154 | 121.00390 | 84 ft | 17 kts | 240° |
| 2026-05-07 14:24 | 14.50093 | 121.00280 | 84 ft | 17 kts | 240° |
| 2026-05-07 14:24 | 14.50030 | 121.00168 | 84 ft | 18 kts | 240° |
| 2026-05-07 14:24 | 14.49967 | 121.00055 | 84 ft | 18 kts | 240° |
| 2026-05-07 14:25 | 14.49923 | 120.99981 | 84 ft | 8 kts | 227° |
| 2026-05-07 14:25 | 14.49887 | 120.99966 | 84 ft | 0 kts | 171° |
| 2026-05-07 14:25 | 14.49885 | 120.99966 | 84 ft | 0 kts | 170° |
| 2026-05-07 14:25 | 14.49859 | 120.99976 | 84 ft | 8 kts | 156° |
| 2026-05-07 14:26 | 14.49806 | 121.00037 | 84 ft | 11 kts | 89° |
| 2026-05-07 14:26 | 14.49814 | 121.00066 | 84 ft | 0 kts | 63° |
| 2026-05-07 14:27 | 14.49903 | 121.00227 | 84 ft | 68 kts | 60° |
| 2026-05-07 14:28 | 14.50277 | 121.00899 | 87 ft | 143 kts | 60° |
| 2026-05-07 14:28 | 14.50790 | 121.01819 | 629 ft | 156 kts | 60° |
| 2026-05-07 14:28 | 14.51347 | 121.02805 | 1321 ft | 167 kts | 59° |
| 2026-05-07 14:28 | 14.51942 | 121.03847 | 2146 ft | 173 kts | 59° |
| 2026-05-07 14:29 | 14.52556 | 121.04911 | 3023 ft | 177 kts | 59° |
| 2026-05-07 14:29 | 14.53185 | 121.05991 | 3923 ft | 179 kts | 59° |
| 2026-05-07 14:29 | 14.53818 | 121.07140 | 4653 ft | 194 kts | 61° |
| 2026-05-07 14:29 | 14.54493 | 121.08403 | 5361 ft | 212 kts | 61° |
| 2026-05-07 14:30 | 14.55247 | 121.09798 | 6008 ft | 236 kts | 60° |
| 2026-05-07 14:30 | 14.56096 | 121.11346 | 6670 ft | 263 kts | 60° |
| 2026-05-07 14:30 | 14.56968 | 121.13126 | 7031 ft | 301 kts | 69° |
| 2026-05-07 14:30 | 14.57521 | 121.15367 | 7091 ft | 347 kts | 81° |
| 2026-05-07 14:31 | 14.57828 | 121.17940 | 7074 ft | 358 kts | 84° |
| 2026-05-07 14:31 | 14.58085 | 121.20464 | 6927 ft | 354 kts | 84° |
| 2026-05-07 14:31 | 14.58315 | 121.23020 | 7161 ft | 364 kts | 89° |
| 2026-05-07 14:31 | 14.57873 | 121.25584 | 8105 ft | 366 kts | 111° |
| 2026-05-07 14:32 | 14.56565 | 121.27791 | 9212 ft | 363 kts | 131° |
| 2026-05-07 14:32 | 14.54645 | 121.29465 | 10088 ft | 366 kts | 143° |
| 2026-05-07 14:32 | 14.52572 | 121.31023 | 10871 ft | 372 kts | 143° |
| 2026-05-07 14:32 | 14.50471 | 121.32600 | 11647 ft | 377 kts | 143° |
| 2026-05-07 14:33 | 14.48325 | 121.34222 | 12427 ft | 381 kts | 143° |
| 2026-05-07 14:33 | 14.46193 | 121.35843 | 13176 ft | 385 kts | 143° |
| 2026-05-07 14:33 | 14.44021 | 121.37501 | 13912 ft | 389 kts | 143° |
| 2026-05-07 14:33 | 14.41844 | 121.39167 | 14624 ft | 393 kts | 143° |
| 2026-05-07 14:34 | 14.39660 | 121.40839 | 15311 ft | 397 kts | 143° |
| 2026-05-07 14:34 | 14.37425 | 121.42551 | 15988 ft | 401 kts | 143° |
| 2026-05-07 14:34 | 14.35195 | 121.44260 | 16637 ft | 405 kts | 143° |
| 2026-05-07 14:34 | 14.32896 | 121.46020 | 17281 ft | 408 kts | 143° |
| 2026-05-07 14:35 | 14.30602 | 121.47776 | 17898 ft | 412 kts | 143° |
| 2026-05-07 14:35 | 14.28318 | 121.49524 | 18478 ft | 416 kts | 143° |
| 2026-05-07 14:35 | 14.25969 | 121.51319 | 19048 ft | 419 kts | 143° |
| 2026-05-07 14:35 | 14.23627 | 121.53104 | 19599 ft | 423 kts | 143° |
| 2026-05-07 14:36 | 14.21249 | 121.54915 | 20146 ft | 426 kts | 143° |
| 2026-05-07 14:36 | 14.18850 | 121.56742 | 20685 ft | 430 kts | 143° |
| 2026-05-07 14:36 | 14.16423 | 121.58590 | 21215 ft | 433 kts | 143° |
| 2026-05-07 14:36 | 14.14027 | 121.60415 | 21724 ft | 436 kts | 143° |
| 2026-05-07 14:37 | 14.11559 | 121.62293 | 22233 ft | 440 kts | 143° |
| 2026-05-07 14:37 | 14.06619 | 121.66056 | 23203 ft | 446 kts | 143° |
| 2026-05-07 14:37 | 14.04092 | 121.67984 | 23675 ft | 449 kts | 143° |
| 2026-05-07 14:38 | 14.01584 | 121.69898 | 24131 ft | 452 kts | 143° |
| 2026-05-07 14:38 | 13.99070 | 121.71817 | 24569 ft | 455 kts | 143° |
| 2026-05-07 14:38 | 13.96513 | 121.73767 | 24993 ft | 458 kts | 143° |
| 2026-05-07 14:38 | 13.93933 | 121.75734 | 25407 ft | 461 kts | 143° |
| 2026-05-07 14:39 | 13.91345 | 121.77705 | 25798 ft | 463 kts | 143° |
| 2026-05-07 14:39 | 13.88740 | 121.79652 | 26165 ft | 466 kts | 145° |
| 2026-05-07 14:39 | 13.86023 | 121.81489 | 26545 ft | 469 kts | 148° |
| 2026-05-07 14:39 | 13.83196 | 121.83192 | 26908 ft | 471 kts | 151° |
| 2026-05-07 14:40 | 13.80270 | 121.84814 | 27245 ft | 474 kts | 152° |
| 2026-05-07 14:40 | 13.77375 | 121.86402 | 27552 ft | 476 kts | 152° |
| 2026-05-07 14:40 | 13.74418 | 121.88022 | 27851 ft | 478 kts | 152° |
| 2026-05-07 14:40 | 13.71506 | 121.89617 | 28119 ft | 480 kts | 152° |
| 2026-05-07 14:41 | 13.68531 | 121.91248 | 28374 ft | 482 kts | 152° |
| 2026-05-07 14:41 | 13.65588 | 121.92861 | 28607 ft | 483 kts | 152° |
| 2026-05-07 14:41 | 13.62575 | 121.94512 | 28829 ft | 485 kts | 152° |
| 2026-05-07 14:41 | 13.59620 | 121.96132 | 29035 ft | 486 kts | 152° |
| 2026-05-07 14:42 | 13.56607 | 121.97783 | 29267 ft | 486 kts | 152° |
| 2026-05-07 14:42 | 13.53649 | 121.99404 | 29513 ft | 486 kts | 152° |
| 2026-05-07 14:42 | 13.50640 | 122.01052 | 29764 ft | 485 kts | 152° |
| 2026-05-07 14:42 | 13.47656 | 122.02686 | 30011 ft | 485 kts | 152° |
| 2026-05-07 14:43 | 13.44706 | 122.04302 | 30250 ft | 484 kts | 152° |
| 2026-05-07 14:43 | 13.41727 | 122.05933 | 30480 ft | 484 kts | 152° |
| 2026-05-07 14:43 | 13.38726 | 122.07574 | 30707 ft | 483 kts | 152° |
| 2026-05-07 14:43 | 13.35769 | 122.09192 | 30923 ft | 483 kts | 152° |
| 2026-05-07 14:44 | 13.29841 | 122.12434 | 31008 ft | 481 kts | 152° |
| 2026-05-07 14:44 | 13.23929 | 122.15665 | 31010 ft | 481 kts | 152° |
| 2026-05-07 14:45 | 13.18029 | 122.18887 | 31011 ft | 481 kts | 152° |
| 2026-05-07 14:45 | 13.12134 | 122.22105 | 31011 ft | 480 kts | 152° |
| 2026-05-07 14:46 | 13.06207 | 122.25339 | 31011 ft | 480 kts | 152° |
| 2026-05-07 14:46 | 13.00320 | 122.28549 | 31011 ft | 480 kts | 152° |
| 2026-05-07 14:47 | 12.94422 | 122.31763 | 31011 ft | 480 kts | 152° |
| 2026-05-07 14:47 | 12.88522 | 122.34978 | 31011 ft | 480 kts | 152° |
| 2026-05-07 14:48 | 12.82618 | 122.38193 | 31011 ft | 480 kts | 152° |
| 2026-05-07 14:48 | 12.76709 | 122.41408 | 31011 ft | 480 kts | 152° |
| 2026-05-07 14:49 | 12.70778 | 122.44634 | 31011 ft | 480 kts | 152° |
| 2026-05-07 14:49 | 12.64886 | 122.47836 | 31011 ft | 480 kts | 152° |
| 2026-05-07 14:50 | 12.59120 | 122.51318 | 31005 ft | 480 kts | 141° |
| 2026-05-07 14:50 | 12.56741 | 122.53658 | 31009 ft | 480 kts | 130° |
| 2026-05-07 14:50 | 12.54758 | 122.56413 | 31011 ft | 480 kts | 121° |
| 2026-05-07 14:51 | 12.51410 | 122.62328 | 31013 ft | 480 kts | 120° |
| 2026-05-07 14:51 | 12.48074 | 122.68208 | 31012 ft | 480 kts | 120° |
| 2026-05-07 14:52 | 12.44682 | 122.74123 | 31011 ft | 480 kts | 120° |
| 2026-05-07 14:52 | 12.41313 | 122.79984 | 31011 ft | 480 kts | 120° |
| 2026-05-07 14:53 | 12.37935 | 122.85864 | 31011 ft | 480 kts | 120° |
| 2026-05-07 14:53 | 12.34537 | 122.91733 | 31011 ft | 480 kts | 122° |
| 2026-05-07 14:54 | 12.30551 | 122.97214 | 31011 ft | 480 kts | 131° |
| 2026-05-07 14:54 | 12.25686 | 123.01837 | 31011 ft | 480 kts | 142° |
| 2026-05-07 14:55 | 12.20310 | 123.05886 | 31011 ft | 480 kts | 144° |
| 2026-05-07 14:55 | 12.14861 | 123.09909 | 31011 ft | 480 kts | 144° |
| 2026-05-07 14:56 | 12.09464 | 123.13902 | 31011 ft | 480 kts | 144° |
| 2026-05-07 14:56 | 12.04047 | 123.17916 | 31010 ft | 478 kts | 144° |
| 2026-05-07 14:57 | 12.01396 | 123.19881 | 30947 ft | 462 kts | 144° |
| 2026-05-07 14:57 | 11.98838 | 123.21777 | 30697 ft | 449 kts | 144° |
| 2026-05-07 14:57 | 11.96344 | 123.23626 | 30382 ft | 439 kts | 144° |
| 2026-05-07 14:57 | 11.93888 | 123.25446 | 30001 ft | 430 kts | 144° |
| 2026-05-07 14:58 | 11.91505 | 123.27212 | 29627 ft | 423 kts | 144° |
| 2026-05-07 14:58 | 11.89138 | 123.28964 | 29252 ft | 416 kts | 144° |
| 2026-05-07 14:58 | 11.86799 | 123.30697 | 28879 ft | 409 kts | 144° |
| 2026-05-07 14:58 | 11.84530 | 123.32378 | 28516 ft | 402 kts | 144° |
| 2026-05-07 14:59 | 11.82293 | 123.34033 | 28157 ft | 396 kts | 144° |
| 2026-05-07 14:59 | 11.80086 | 123.35667 | 27786 ft | 390 kts | 144° |
| 2026-05-07 14:59 | 11.77895 | 123.37287 | 27486 ft | 382 kts | 144° |
| 2026-05-07 14:59 | 11.75766 | 123.38863 | 27234 ft | 374 kts | 144° |
| 2026-05-07 15:00 | 11.73679 | 123.40407 | 26982 ft | 366 kts | 144° |
| 2026-05-07 15:00 | 11.71626 | 123.41924 | 26731 ft | 361 kts | 144° |
| 2026-05-07 15:00 | 11.69596 | 123.43426 | 26483 ft | 361 kts | 144° |
| 2026-05-07 15:00 | 11.67564 | 123.44928 | 26234 ft | 362 kts | 144° |
| 2026-05-07 15:01 | 11.65509 | 123.46447 | 25983 ft | 362 kts | 144° |
| 2026-05-07 15:01 | 11.63477 | 123.47948 | 25735 ft | 363 kts | 144° |
| 2026-05-07 15:01 | 11.61436 | 123.49456 | 25487 ft | 363 kts | 144° |
| 2026-05-07 15:01 | 11.59369 | 123.50983 | 25235 ft | 363 kts | 144° |
| 2026-05-07 15:02 | 11.57324 | 123.52492 | 24987 ft | 364 kts | 144° |
| 2026-05-07 15:02 | 11.55284 | 123.53999 | 24739 ft | 364 kts | 144° |
| 2026-05-07 15:02 | 11.53241 | 123.55508 | 24491 ft | 365 kts | 144° |
| 2026-05-07 15:02 | 11.51160 | 123.57044 | 24239 ft | 365 kts | 144° |
| 2026-05-07 15:03 | 11.49114 | 123.58554 | 23991 ft | 365 kts | 144° |
| 2026-05-07 15:03 | 11.47047 | 123.60079 | 23741 ft | 366 kts | 144° |
| 2026-05-07 15:03 | 11.44968 | 123.61612 | 23489 ft | 366 kts | 144° |
| 2026-05-07 15:03 | 11.42922 | 123.63121 | 23243 ft | 366 kts | 144° |
| 2026-05-07 15:04 | 11.40835 | 123.64661 | 22991 ft | 367 kts | 144° |
| 2026-05-07 15:04 | 11.38784 | 123.66173 | 22744 ft | 367 kts | 144° |
| 2026-05-07 15:04 | 11.36706 | 123.67705 | 22494 ft | 368 kts | 144° |
| 2026-05-07 15:04 | 11.34618 | 123.69244 | 22243 ft | 368 kts | 144° |
| 2026-05-07 15:05 | 11.32535 | 123.70779 | 21993 ft | 368 kts | 144° |
| 2026-05-07 15:05 | 11.30484 | 123.72291 | 21746 ft | 367 kts | 144° |
| 2026-05-07 15:05 | 11.28411 | 123.73817 | 21495 ft | 366 kts | 144° |
| 2026-05-07 15:05 | 11.26350 | 123.75337 | 21245 ft | 364 kts | 144° |
| 2026-05-07 15:06 | 11.24292 | 123.76852 | 20995 ft | 363 kts | 144° |
| 2026-05-07 15:06 | 11.22250 | 123.78355 | 20745 ft | 362 kts | 144° |
| 2026-05-07 15:06 | 11.20204 | 123.79861 | 20494 ft | 360 kts | 144° |
| 2026-05-07 15:06 | 11.18173 | 123.81356 | 20244 ft | 359 kts | 144° |
| 2026-05-07 15:07 | 11.16136 | 123.82817 | 19992 ft | 358 kts | 149° |
| 2026-05-07 15:07 | 11.13849 | 123.83742 | 19733 ft | 356 kts | 169° |
| 2026-05-07 15:07 | 11.11382 | 123.83836 | 19483 ft | 355 kts | 188° |
| 2026-05-07 15:07 | 11.08963 | 123.83259 | 19240 ft | 354 kts | 195° |
| 2026-05-07 15:08 | 11.06616 | 123.82583 | 18993 ft | 352 kts | 196° |
| 2026-05-07 15:08 | 11.04253 | 123.81898 | 18745 ft | 351 kts | 196° |
| 2026-05-07 15:08 | 11.01906 | 123.81225 | 18500 ft | 349 kts | 195° |
| 2026-05-07 15:08 | 10.99548 | 123.80556 | 18214 ft | 348 kts | 195° |
| 2026-05-07 15:09 | 10.97221 | 123.79900 | 17857 ft | 346 kts | 195° |
| 2026-05-07 15:09 | 10.94908 | 123.79251 | 17471 ft | 344 kts | 195° |
| 2026-05-07 15:09 | 10.92589 | 123.78602 | 17071 ft | 342 kts | 195° |
| 2026-05-07 15:09 | 10.90310 | 123.77965 | 16671 ft | 339 kts | 195° |
| 2026-05-07 15:10 | 10.88044 | 123.77331 | 16269 ft | 337 kts | 195° |
| 2026-05-07 15:10 | 10.85778 | 123.76698 | 15865 ft | 335 kts | 195° |
| 2026-05-07 15:10 | 10.83515 | 123.76066 | 15459 ft | 333 kts | 195° |
| 2026-05-07 15:10 | 10.81288 | 123.75445 | 15059 ft | 331 kts | 195° |
| 2026-05-07 15:11 | 10.79061 | 123.74824 | 14658 ft | 329 kts | 195° |
| 2026-05-07 15:11 | 10.76869 | 123.74214 | 14262 ft | 327 kts | 195° |
| 2026-05-07 15:11 | 10.74682 | 123.73605 | 13865 ft | 325 kts | 195° |
| 2026-05-07 15:11 | 10.72482 | 123.72991 | 13466 ft | 323 kts | 195° |
| 2026-05-07 15:12 | 10.70337 | 123.72393 | 13145 ft | 318 kts | 195° |
| 2026-05-07 15:12 | 10.68210 | 123.71800 | 12854 ft | 311 kts | 195° |
| 2026-05-07 15:12 | 10.66127 | 123.71219 | 12522 ft | 307 kts | 195° |
| 2026-05-07 15:12 | 10.64083 | 123.70649 | 12200 ft | 302 kts | 195° |
| 2026-05-07 15:13 | 10.62073 | 123.70089 | 11885 ft | 298 kts | 195° |
| 2026-05-07 15:13 | 10.60101 | 123.69540 | 11578 ft | 293 kts | 195° |
| 2026-05-07 15:13 | 10.58139 | 123.68995 | 11275 ft | 289 kts | 195° |
| 2026-05-07 15:13 | 10.56209 | 123.68458 | 10977 ft | 284 kts | 195° |
| 2026-05-07 15:14 | 10.54319 | 123.67931 | 10683 ft | 280 kts | 195° |
| 2026-05-07 15:14 | 10.52430 | 123.67406 | 10353 ft | 277 kts | 195° |
| 2026-05-07 15:14 | 10.50589 | 123.66892 | 10068 ft | 273 kts | 195° |
| 2026-05-07 15:14 | 10.48752 | 123.66381 | 9650 ft | 275 kts | 195° |
| 2026-05-07 15:15 | 10.46889 | 123.65861 | 9262 ft | 274 kts | 195° |
| 2026-05-07 15:15 | 10.45042 | 123.65347 | 8915 ft | 273 kts | 195° |
| 2026-05-07 15:15 | 10.43233 | 123.64843 | 8588 ft | 270 kts | 195° |
| 2026-05-07 15:15 | 10.41408 | 123.64336 | 8263 ft | 268 kts | 195° |
| 2026-05-07 15:16 | 10.39607 | 123.63834 | 7917 ft | 266 kts | 195° |
| 2026-05-07 15:16 | 10.37815 | 123.63335 | 7278 ft | 277 kts | 195° |
| 2026-05-07 15:16 | 10.35878 | 123.62883 | 6508 ft | 290 kts | 184° |
| 2026-05-07 15:16 | 10.33872 | 123.63258 | 5645 ft | 303 kts | 153° |
| 2026-05-07 15:17 | 10.32222 | 123.64624 | 4789 ft | 315 kts | 133° |
| 2026-05-07 15:17 | 10.30712 | 123.66253 | 3940 ft | 324 kts | 134° |
| 2026-05-07 15:17 | 10.29124 | 123.67898 | 3344 ft | 324 kts | 134° |
| 2026-05-07 15:17 | 10.27559 | 123.69498 | 3093 ft | 312 kts | 135° |
| 2026-05-07 15:18 | 10.26068 | 123.71016 | 3081 ft | 293 kts | 135° |
| 2026-05-07 15:18 | 10.24679 | 123.72428 | 3079 ft | 275 kts | 135° |
| 2026-05-07 15:18 | 10.23358 | 123.73771 | 3074 ft | 258 kts | 135° |
| 2026-05-07 15:18 | 10.22134 | 123.75015 | 3070 ft | 242 kts | 135° |
| 2026-05-07 15:19 | 10.20983 | 123.76185 | 3067 ft | 226 kts | 135° |
| 2026-05-07 15:19 | 10.19907 | 123.77278 | 3063 ft | 211 kts | 135° |
| 2026-05-07 15:19 | 10.18901 | 123.78301 | 3065 ft | 201 kts | 135° |
| 2026-05-07 15:19 | 10.17901 | 123.79315 | 3078 ft | 200 kts | 135° |
| 2026-05-07 15:20 | 10.16921 | 123.80312 | 3076 ft | 200 kts | 134° |
| 2026-05-07 15:20 | 10.16166 | 123.81489 | 3036 ft | 200 kts | 102° |
| 2026-05-07 15:20 | 10.16240 | 123.82876 | 3014 ft | 200 kts | 68° |
| 2026-05-07 15:20 | 10.16958 | 123.84071 | 2979 ft | 200 kts | 50° |
| 2026-05-07 15:21 | 10.17910 | 123.85100 | 2936 ft | 200 kts | 44° |
| 2026-05-07 15:21 | 10.18923 | 123.86080 | 2823 ft | 199 kts | 44° |
| 2026-05-07 15:21 | 10.19915 | 123.87042 | 2761 ft | 191 kts | 44° |
| 2026-05-07 15:21 | 10.20864 | 123.87983 | 2456 ft | 191 kts | 45° |
| 2026-05-07 15:22 | 10.21804 | 123.88930 | 2162 ft | 188 kts | 45° |
| 2026-05-07 15:22 | 10.22717 | 123.89854 | 1920 ft | 183 kts | 45° |
| 2026-05-07 15:22 | 10.23607 | 123.90752 | 1683 ft | 178 kts | 45° |
| 2026-05-07 15:22 | 10.24478 | 123.91630 | 1452 ft | 173 kts | 45° |
| 2026-05-07 15:23 | 10.25315 | 123.92472 | 1221 ft | 163 kts | 45° |
| 2026-05-07 15:23 | 10.26091 | 123.93253 | 1016 ft | 151 kts | 45° |
| 2026-05-07 15:23 | 10.26823 | 123.93990 | 835 ft | 148 kts | 45° |
| 2026-05-07 15:23 | 10.27552 | 123.94722 | 631 ft | 147 kts | 45° |
| 2026-05-07 15:24 | 10.28286 | 123.95461 | 438 ft | 147 kts | 45° |
| 2026-05-07 15:24 | 10.29002 | 123.96178 | 277 ft | 140 kts | 44° |
| 2026-05-07 15:24 | 10.29685 | 123.96863 | 53 ft | 135 kts | 45° |
| 2026-05-07 15:24 | 10.30327 | 123.97512 | 26 ft | 126 kts | 44° |
| 2026-05-07 15:25 | 10.30834 | 123.98019 | 31 ft | 71 kts | 44° |
| 2026-05-07 15:25 | 10.31059 | 123.98238 | 30 ft | 30 kts | 39° |
| 2026-05-07 15:25 | 10.31242 | 123.98334 | 30 ft | 28 kts | 17° |
| 2026-05-07 15:25 | 10.31372 | 123.98335 | 32 ft | 12 kts | 332° |
| 2026-05-07 15:26 | 10.31410 | 123.98301 | 33 ft | 6 kts | 316° |
| 2026-05-07 15:26 | 10.31441 | 123.98271 | 34 ft | 5 kts | 316° |
| 2026-05-07 15:26 | 10.31468 | 123.98244 | 35 ft | 5 kts | 315° |
| 2026-05-07 15:26 | 10.31491 | 123.98220 | 36 ft | 4 kts | 314° |
| 2026-05-07 15:27 | 10.31512 | 123.98199 | 37 ft | 4 kts | 314° |
| 2026-05-07 15:27 | 10.31533 | 123.98177 | 38 ft | 4 kts | 314° |
| 2026-05-07 15:27 | 10.31560 | 123.98139 | 39 ft | 8 kts | 287° |
| 2026-05-07 15:27 | 10.31532 | 123.98072 | 40 ft | 12 kts | 226° |
| 2026-05-07 15:28 | 10.31461 | 123.98001 | 41 ft | 14 kts | 225° |
| 2026-05-07 15:28 | 10.31406 | 123.97940 | 40 ft | 9 kts | 258° |
| 2026-05-07 15:28 | 10.31446 | 123.97895 | 40 ft | 7 kts | 318° |
| 2026-05-07 15:28 | 10.31455 | 123.97886 | 40 ft | 0 kts | 317° |
| 2026-05-07 15:29 | 10.31463 | 123.97878 | 41 ft | 0 kts | 317° |
| 2026-05-07 15:29 | 10.31462 | 123.97879 | 41 ft | 0 kts | 317° |
| 2026-05-07 15:29 | 10.31461 | 123.97881 | 41 ft | 0 kts | 317° |
| 2026-05-07 15:30 | 10.31460 | 123.97881 | 41 ft | 0 kts | 317° |